createdAt,value
2022-12-13T00:04:35.814Z,25.48
2022-12-13T00:09:36.936Z,25.65
2022-12-13T00:14:37.680Z,30.15
2022-12-13T00:19:38.477Z,29.35
2022-12-13T00:24:45.766Z,26.48
2022-12-13T00:29:46.878Z,29.40
2022-12-13T00:34:47.849Z,27.05
2022-12-13T00:39:48.623Z,27.42
2022-12-13T00:44:49.732Z,27.10
2022-12-13T00:49:50.521Z,25.23
2022-12-13T00:54:51.305Z,25.40
2022-12-13T00:59:52.057Z,25.12
2022-12-13T01:04:52.861Z,24.42
2022-12-13T01:09:53.633Z,27.10
2022-12-13T01:14:56.229Z,25.77
2022-12-13T01:19:57.850Z,28.50
2022-12-13T01:24:58.549Z,26.08
2022-12-13T01:29:59.308Z,26.08
2022-12-13T01:35:00.296Z,26.25
2022-12-13T01:40:01.175Z,23.90
2022-12-13T01:45:06.809Z,25.40
2022-12-13T01:50:13.497Z,23.92
2022-12-13T01:55:16.228Z,21.70
2022-12-13T02:00:17.638Z,23.48
2022-12-13T02:05:31.100Z,22.65
2022-12-13T02:10:32.190Z,23.12
2022-12-13T02:15:54.095Z,21.80
2022-12-13T02:21:30.199Z,22.00
2022-12-13T02:27:00.108Z,18.50
2022-12-13T02:32:07.716Z,19.37
2022-12-13T02:37:30.039Z,20.48
2022-12-13T02:42:37.087Z,19.37
2022-12-13T02:47:42.739Z,18.70
2022-12-13T02:52:45.803Z,19.67
2022-12-13T03:03:33.995Z,17.62
2022-12-13T03:15:38.888Z,18.80
2022-12-13T03:20:39.693Z,17.12
2022-12-13T03:25:40.512Z,16.37
2022-12-13T03:30:41.383Z,17.48
2022-12-13T03:35:44.371Z,17.30
2022-12-13T03:40:46.413Z,16.35
2022-12-13T03:45:47.161Z,16.80
2022-12-13T03:50:49.206Z,16.75
2022-12-13T03:55:49.970Z,16.83
2022-12-13T04:00:50.850Z,17.95
2022-12-13T04:05:51.585Z,17.25
2022-12-13T04:10:52.511Z,16.10
2022-12-13T04:15:53.279Z,16.50
2022-12-13T04:20:54.146Z,16.48
2022-12-13T04:25:55.031Z,17.42
2022-12-13T04:30:55.803Z,17.05
2022-12-13T04:35:56.500Z,16.45
2022-12-13T04:41:08.277Z,16.95
2022-12-13T04:46:09.361Z,18.12
2022-12-13T04:51:10.597Z,17.60
2022-12-13T04:56:11.311Z,19.40
2022-12-13T05:01:12.719Z,16.58
2022-12-13T05:06:26.648Z,15.57
2022-12-13T05:11:35.809Z,15.52
2022-12-13T05:16:37.036Z,17.08
2022-12-13T05:21:37.947Z,15.82
2022-12-13T05:26:38.708Z,14.70
2022-12-13T05:31:39.511Z,14.93
2022-12-13T05:36:40.328Z,16.60
2022-12-13T05:41:41.952Z,14.15
2022-12-13T05:46:42.766Z,15.55
2022-12-13T05:51:44.251Z,15.43
2022-12-13T05:56:45.014Z,14.40
2022-12-13T06:01:45.885Z,15.95
2022-12-13T06:06:46.581Z,15.40
2022-12-13T06:11:51.935Z,14.90
2022-12-13T06:17:02.987Z,14.93
2022-12-13T06:22:04.678Z,14.75
2022-12-13T06:27:05.415Z,15.57
2022-12-13T06:32:06.435Z,15.18
2022-12-13T06:37:11.417Z,14.82
2022-12-13T06:42:21.664Z,16.58
2022-12-13T06:47:32.207Z,16.33
2022-12-13T06:52:34.298Z,15.52
2022-12-13T06:57:35.183Z,15.70
2022-12-13T07:02:37.489Z,16.73
2022-12-13T07:07:38.432Z,15.85
2022-12-13T07:12:39.569Z,17.42
2022-12-13T07:17:41.864Z,16.20
2022-12-13T07:22:47.827Z,15.50
2022-12-13T07:28:03.591Z,13.62
2022-12-13T07:33:05.421Z,15.02
2022-12-13T07:38:08.415Z,14.40
2022-12-13T07:43:09.656Z,14.30
2022-12-13T07:48:10.433Z,16.25
2022-12-13T07:53:11.335Z,13.80
2022-12-13T07:58:15.070Z,12.75
2022-12-13T08:03:24.568Z,12.73
2022-12-13T08:08:31.530Z,13.48
2022-12-13T08:13:33.446Z,13.18
2022-12-13T08:18:34.432Z,13.32
2022-12-13T08:23:35.911Z,13.35
2022-12-13T08:28:37.277Z,13.65
2022-12-13T08:33:39.667Z,13.77
2022-12-13T08:38:41.077Z,13.40
2022-12-13T08:43:41.943Z,14.10
2022-12-13T08:48:44.252Z,18.08
2022-12-13T08:58:51.062Z,15.45
2022-12-13T09:03:55.227Z,16.25
2022-12-13T09:08:56.106Z,17.62
2022-12-13T09:14:01.528Z,15.05
2022-12-13T09:19:24.752Z,15.65
2022-12-13T09:24:27.733Z,17.52
2022-12-13T09:29:28.426Z,17.07
2022-12-13T09:34:29.264Z,16.10
2022-12-13T09:39:30.104Z,18.02
2022-12-13T09:44:43.798Z,16.80
2022-12-13T09:49:52.193Z,16.10
2022-12-13T09:54:58.459Z,15.38
2022-12-13T10:00:02.786Z,15.98
2022-12-13T10:05:44.898Z,15.88
2022-12-13T10:10:45.851Z,14.63
2022-12-13T10:16:06.297Z,14.55
2022-12-13T10:21:11.071Z,14.50
2022-12-13T10:26:23.970Z,14.32
2022-12-13T10:31:25.554Z,14.77
2022-12-13T10:36:32.237Z,15.25
2022-12-13T10:41:38.328Z,16.23
2022-12-13T10:46:42.077Z,13.75
2022-12-13T10:51:43.626Z,12.75
2022-12-13T10:56:53.116Z,13.65
2022-12-13T11:01:54.463Z,14.27
2022-12-13T11:06:58.150Z,13.82
2022-12-13T11:12:10.565Z,14.52
2022-12-13T11:17:20.154Z,12.63
2022-12-13T11:22:39.457Z,12.75
2022-12-13T11:29:42.886Z,12.20
2022-12-13T11:35:08.544Z,13.17
2022-12-13T11:40:40.058Z,11.65
2022-12-13T11:45:50.223Z,12.35
2022-12-13T11:50:54.987Z,13.23
2022-12-13T11:56:45.369Z,11.63
2022-12-13T12:02:57.977Z,11.50
2022-12-13T12:08:31.721Z,11.43
2022-12-13T12:13:50.503Z,9.88
2022-12-13T12:18:52.636Z,9.68
2022-12-13T12:27:22.269Z,9.60
2022-12-13T12:32:46.231Z,8.43
2022-12-13T12:38:20.450Z,9.65
2022-12-13T12:43:58.376Z,9.57
2022-12-13T12:50:00.740Z,9.50
2022-12-13T12:58:07.682Z,9.15
2022-12-13T13:03:22.557Z,9.52
2022-12-13T13:10:26.957Z,9.98
2022-12-13T13:16:28.495Z,10.32
2022-12-13T13:21:37.490Z,12.18
2022-12-13T13:26:56.542Z,12.27
2022-12-13T13:33:50.434Z,12.55
2022-12-13T13:38:52.792Z,12.27
2022-12-13T13:43:53.604Z,13.43
2022-12-13T13:49:01.333Z,12.13
2022-12-13T13:54:41.260Z,12.27
2022-12-13T14:00:17.013Z,12.55
2022-12-13T14:13:29.262Z,12.98
2022-12-13T14:22:07.672Z,13.40
2022-12-13T14:27:35.450Z,13.82
2022-12-13T14:32:38.683Z,13.30
2022-12-13T14:37:39.505Z,12.18
2022-12-13T14:42:41.527Z,13.65
2022-12-13T14:47:49.465Z,12.75
2022-12-13T14:52:50.557Z,12.88
2022-12-13T14:57:57.213Z,12.32
2022-12-13T15:03:01.948Z,13.05
2022-12-13T15:08:10.820Z,13.38
2022-12-13T15:14:12.737Z,13.95
2022-12-13T15:19:31.060Z,14.48
2022-12-13T15:24:41.102Z,13.98
2022-12-13T15:29:53.589Z,13.25
2022-12-13T15:34:54.846Z,13.62
2022-12-13T15:39:58.999Z,13.88
2022-12-13T15:45:05.671Z,15.00
2022-12-13T15:50:07.830Z,13.52
2022-12-13T15:55:36.303Z,12.60
2022-12-13T16:00:37.083Z,13.38
2022-12-13T16:05:48.411Z,14.27
2022-12-13T16:10:52.372Z,13.82
2022-12-13T16:15:59.805Z,13.77
2022-12-13T16:21:01.351Z,13.93
2022-12-13T16:26:08.514Z,14.10
2022-12-13T16:31:34.513Z,13.98
2022-12-13T16:36:35.967Z,13.18
2022-12-13T16:41:38.872Z,13.90
2022-12-13T16:47:13.096Z,15.18
2022-12-13T16:52:21.094Z,14.45
2022-12-13T16:57:21.826Z,14.70
2022-12-13T17:02:22.896Z,14.95
2022-12-13T17:07:23.764Z,14.98
2022-12-13T17:12:25.611Z,14.15
2022-12-13T17:17:26.677Z,14.32
2022-12-13T17:22:27.575Z,15.05
2022-12-13T17:27:29.313Z,13.45
2022-12-13T17:32:30.036Z,14.43
2022-12-13T17:37:31.360Z,14.82
2022-12-13T17:42:33.757Z,13.60
2022-12-13T17:47:34.505Z,13.73
2022-12-13T17:52:37.412Z,13.43
2022-12-13T18:02:39.134Z,11.50
2022-12-13T18:07:40.141Z,11.68
2022-12-13T18:12:40.903Z,12.32
2022-12-13T18:18:10.167Z,12.07
2022-12-13T18:23:12.853Z,11.00
2022-12-13T18:28:13.576Z,13.38
2022-12-13T18:33:14.350Z,13.60
2022-12-13T18:38:15.140Z,12.63
2022-12-13T18:43:17.504Z,11.77
2022-12-13T18:48:19.236Z,13.05
2022-12-13T18:53:19.964Z,13.80
2022-12-13T18:58:20.721Z,15.02
2022-12-13T19:03:21.552Z,12.32
2022-12-13T19:08:25.298Z,13.18
2022-12-13T19:13:27.230Z,13.13
2022-12-13T19:18:29.085Z,13.90
2022-12-13T19:23:30.317Z,13.20
2022-12-13T19:28:32.156Z,13.68
2022-12-13T19:38:35.200Z,12.20
2022-12-13T19:43:36.104Z,13.25
2022-12-13T19:48:38.101Z,12.68
2022-12-13T19:53:39.167Z,13.40
2022-12-13T19:58:40.323Z,13.60
2022-12-13T20:03:44.738Z,13.00
2022-12-13T20:08:46.189Z,13.55
2022-12-13T20:13:48.573Z,11.80
2022-12-13T20:18:54.981Z,12.85
2022-12-13T20:23:57.246Z,12.82
2022-12-13T20:28:59.305Z,12.07
2022-12-13T20:34:02.703Z,13.30
2022-12-13T20:39:05.048Z,12.90
2022-12-13T20:44:07.616Z,12.85
2022-12-13T20:49:09.814Z,11.98
2022-12-13T20:54:10.554Z,12.98
2022-12-13T20:59:12.373Z,13.57
2022-12-13T21:04:13.103Z,11.82
2022-12-13T21:09:14.042Z,13.10
2022-12-13T21:14:24.521Z,11.63
2022-12-13T21:19:37.506Z,13.15
2022-12-13T21:24:40.558Z,12.73
2022-12-13T21:29:41.296Z,12.07
2022-12-13T21:34:42.643Z,12.65
2022-12-13T21:39:43.447Z,12.00
2022-12-13T21:44:44.273Z,11.07
2022-12-13T21:49:48.349Z,10.93
2022-12-13T21:54:52.904Z,10.52
2022-12-13T22:00:00.915Z,10.05
2022-12-13T22:05:01.659Z,11.32
2022-12-13T22:10:03.212Z,11.85
2022-12-13T22:15:07.546Z,10.77
2022-12-13T22:20:11.793Z,10.82
2022-12-13T22:25:12.574Z,10.40
2022-12-13T22:30:13.481Z,10.48
2022-12-13T22:35:14.415Z,10.35
2022-12-13T22:40:15.995Z,11.57
2022-12-13T22:45:16.797Z,10.35
2022-12-13T22:50:19.977Z,11.10
2022-12-13T22:55:20.716Z,10.48
2022-12-13T23:00:21.526Z,9.27
2022-12-13T23:05:22.279Z,9.45
2022-12-13T23:10:41.443Z,10.38
2022-12-13T23:15:47.604Z,10.15
2022-12-13T23:20:50.081Z,10.88
2022-12-13T23:25:50.840Z,9.18
2022-12-13T23:30:51.782Z,9.80
2022-12-13T23:36:09.878Z,8.98
2022-12-13T23:41:21.755Z,10.23
2022-12-13T23:46:29.668Z,12.13
2022-12-13T23:51:30.725Z,9.68
2022-12-13T23:56:31.520Z,9.23
